Time;durP1;ratioP1;P1;durP2;ratioP2;P2;SDS_P1;SDS_P2;PMS_P1;PMS_P2;Temp;Humidity;BMP_temperature;BMP_pressure;BME280_temperature;BME280_humidity;BME280_pressure;Samples;Min_cycle;Max_cycle;Signal;HPM_P1;HPM_P2
2023/06/24 00:01:15;;;;;;;9.88;6.13;;;17.20;99.90;;;;;;5010206;28;20026;-76
2023/06/24 00:03:46;;;;;;;9.20;5.60;;;17.20;99.90;;;;;;5010947;28;20064;-79
2023/06/24 00:06:18;;;;;;;12.45;5.93;;;17.20;99.90;;;;;;5009182;28;20041;-75
2023/06/24 00:08:48;;;;;;;10.30;5.78;;;17.20;99.90;;;;;;5011346;28;20048;-75
2023/06/24 00:11:13;;;;;;;10.65;6.22;;;17.20;99.90;;;;;;5011066;28;20026;-77
2023/06/24 00:13:40;;;;;;;10.77;6.35;;;17.20;99.90;;;;;;5009632;28;20045;-75
2023/06/24 00:16:06;;;;;;;9.85;5.82;;;17.20;99.90;;;;;;5009801;28;20153;-76
2023/06/24 00:18:33;;;;;;;10.55;6.40;;;17.20;99.90;;;;;;5007181;28;20100;-75
2023/06/24 00:20:59;;;;;;;9.00;5.72;;;17.10;99.90;;;;;;5005339;28;20554;-74
2023/06/24 00:23:24;;;;;;;8.05;5.65;;;17.00;99.90;;;;;;5010141;28;20117;-77
2023/06/24 00:25:54;;;;;;;10.27;5.85;;;17.00;99.90;;;;;;5010959;28;20100;-77
2023/06/24 00:28:21;;;;;;;9.15;5.22;;;17.00;99.90;;;;;;5010160;28;20033;-74
2023/06/24 00:30:48;;;;;;;10.70;5.95;;;16.90;99.90;;;;;;5010993;28;20041;-78
2023/06/24 00:33:14;;;;;;;11.93;6.00;;;16.90;99.90;;;;;;5009798;28;20147;-76
2023/06/24 00:35:40;;;;;;;10.88;6.88;;;16.90;99.90;;;;;;5023214;28;20030;-76
2023/06/24 00:38:06;;;;;;;10.05;6.13;;;16.90;99.90;;;;;;5030115;28;20044;-75
2023/06/24 00:40:32;;;;;;;15.18;6.82;;;16.90;99.90;;;;;;5010973;28;20030;-76
2023/06/24 00:42:58;;;;;;;11.55;5.82;;;17.00;99.90;;;;;;5010058;28;20081;-72
2023/06/24 00:45:24;;;;;;;10.90;6.60;;;16.90;99.90;;;;;;5010820;28;20068;-76
2023/06/24 00:47:51;;;;;;;10.15;6.03;;;17.00;99.90;;;;;;5010926;28;20033;-78
2023/06/24 00:50:17;;;;;;;9.55;6.13;;;16.90;99.90;;;;;;5009082;28;20634;-78
2023/06/24 00:52:43;;;;;;;10.02;5.97;;;16.90;99.90;;;;;;5023091;28;20363;-77
2023/06/24 00:55:12;;;;;;;10.55;6.28;;;17.00;99.90;;;;;;5016071;28;20068;-76
2023/06/24 00:57:39;;;;;;;10.35;6.32;;;17.00;99.90;;;;;;5010628;28;20030;-77
2023/06/24 01:00:14;;;;;;;10.43;6.50;;;16.90;99.90;;;;;;5008657;28;20037;-76
2023/06/24 01:02:42;;;;;;;10.48;6.35;;;16.90;99.90;;;;;;5006411;28;20402;-77
2023/06/24 01:05:08;;;;;;;9.40;6.13;;;16.90;99.90;;;;;;5009863;28;20076;-75
2023/06/24 01:07:36;;;;;;;9.57;6.20;;;16.80;99.90;;;;;;5009593;28;20500;-77
2023/06/24 01:10:06;;;;;;;11.70;6.10;;;16.80;99.90;;;;;;5024257;28;20028;-74
2023/06/24 01:12:40;;;;;;;12.48;6.75;;;16.80;99.90;;;;;;5022776;28;20034;-76
2023/06/24 01:15:08;;;;;;;10.80;6.15;;;16.80;99.90;;;;;;5009697;28;20033;-77
2023/06/24 01:17:54;;;;;;;11.23;6.75;;;16.70;99.90;;;;;;5010500;28;20096;-75
2023/06/24 01:20:47;;;;;;;9.57;6.25;;;16.50;99.90;;;;;;5008040;28;20025;-75
2023/06/24 01:23:42;;;;;;;11.60;6.20;;;16.40;99.90;;;;;;5008769;28;20037;-77
2023/06/24 01:26:22;;;;;;;12.65;6.40;;;16.30;99.90;;;;;;4998611;28;20034;-75
2023/06/24 01:29:09;;;;;;;11.68;6.88;;;16.30;99.90;;;;;;5008916;28;20034;-76
2023/06/24 01:31:38;;;;;;;10.13;6.25;;;16.40;99.90;;;;;;5009318;28;20033;-75
2023/06/24 01:34:20;;;;;;;9.52;6.07;;;16.30;99.90;;;;;;5007237;28;20060;-76
2023/06/24 01:36:54;;;;;;;11.20;5.68;;;16.30;99.90;;;;;;5009292;28;20042;-76
2023/06/24 01:39:22;;;;;;;10.40;6.20;;;16.10;99.90;;;;;;5007284;28;20037;-76
2023/06/24 01:41:54;;;;;;;10.60;6.68;;;16.00;99.90;;;;;;5008155;28;20069;-77
2023/06/24 01:44:21;;;;;;;13.65;6.63;;;15.90;99.90;;;;;;4992791;28;20017;-77
2023/06/24 01:46:48;;;;;;;10.80;6.35;;;15.90;99.90;;;;;;5009003;28;20036;-78
2023/06/24 01:49:15;;;;;;;11.45;6.35;;;15.90;99.90;;;;;;5007499;28;20034;-74
2023/06/24 01:51:43;;;;;;;9.45;6.00;;;15.90;99.90;;;;;;4990655;28;20033;-76
2023/06/24 01:54:14;;;;;;;10.20;6.00;;;15.90;99.90;;;;;;5007850;28;20044;-78
2023/06/24 01:56:43;;;;;;;12.45;6.68;;;15.80;99.90;;;;;;5009844;28;20475;-76
2023/06/24 01:59:11;;;;;;;11.48;6.45;;;15.70;99.90;;;;;;5009082;28;20034;-76
2023/06/24 02:01:38;;;;;;;11.07;7.00;;;15.60;99.90;;;;;;5029044;28;20035;-77
2023/06/24 02:04:08;;;;;;;11.32;6.60;;;15.60;99.90;;;;;;5007950;28;20042;-73
2023/06/24 02:06:36;;;;;;;11.87;6.57;;;15.60;99.90;;;;;;5008619;28;20088;-78
2023/06/24 02:09:03;;;;;;;11.85;6.78;;;15.50;99.90;;;;;;5009274;28;20063;-73
2023/06/24 02:11:31;;;;;;;12.00;6.93;;;15.40;99.90;;;;;;5008153;28;20026;-78
2023/06/24 02:14:00;;;;;;;11.98;7.22;;;15.30;99.90;;;;;;5008008;28;20041;-77
2023/06/24 02:16:28;;;;;;;10.27;6.32;;;15.30;99.90;;;;;;5010544;28;20504;-75
2023/06/24 02:18:56;;;;;;;12.25;6.65;;;15.20;99.90;;;;;;5029083;28;20083;-77
2023/06/24 02:21:23;;;;;;;10.85;6.88;;;15.20;99.90;;;;;;5028241;28;20026;-77
2023/06/24 02:23:50;;;;;;;12.13;7.13;;;15.30;99.90;;;;;;5011658;28;20073;-77
2023/06/24 02:26:16;;;;;;;10.63;6.45;;;15.20;99.90;;;;;;5008477;28;20518;-76
2023/06/24 02:28:44;;;;;;;10.10;6.60;;;15.20;99.90;;;;;;5007703;28;20033;-76
2023/06/24 02:31:11;;;;;;;10.90;6.78;;;15.00;99.90;;;;;;5007521;28;20045;-78
2023/06/24 02:33:37;;;;;;;11.57;6.50;;;15.00;99.90;;;;;;5012395;28;20556;-74
2023/06/24 02:36:02;;;;;;;11.57;7.07;;;15.00;99.90;;;;;;5028684;28;20025;-72
2023/06/24 02:38:28;;;;;;;21.88;7.57;;;15.00;99.90;;;;;;5023000;28;20693;-75
2023/06/24 02:40:54;;;;;;;10.88;6.95;;;15.10;99.90;;;;;;5009117;28;20062;-78
2023/06/24 02:43:20;;;;;;;11.15;6.60;;;15.00;99.90;;;;;;5008235;28;20034;-77
2023/06/24 02:45:48;;;;;;;11.60;6.60;;;14.90;99.90;;;;;;5008881;28;20065;-78
2023/06/24 02:48:16;;;;;;;11.30;6.85;;;14.90;99.90;;;;;;5007063;28;20038;-76
2023/06/24 02:50:44;;;;;;;14.88;7.07;;;14.90;99.90;;;;;;4998197;28;20083;-75
2023/06/24 02:53:14;;;;;;;11.23;6.57;;;14.80;99.90;;;;;;5021566;28;20034;-77
2023/06/24 02:55:42;;;;;;;14.52;7.63;;;14.70;99.90;;;;;;5008845;28;20034;-76
2023/06/24 02:58:08;;;;;;;12.55;7.45;;;14.70;99.90;;;;;;5011848;28;20537;-73
2023/06/24 03:00:35;;;;;;;12.88;7.40;;;14.60;99.90;;;;;;5009961;28;20038;-75
2023/06/24 03:03:03;;;;;;;14.15;7.25;;;14.40;99.90;;;;;;5011511;28;20056;-78
2023/06/24 03:05:30;;;;;;;14.65;7.38;;;14.30;99.90;;;;;;5012041;28;20040;-75
2023/06/24 03:07:56;;;;;;;11.88;7.50;;;14.30;99.90;;;;;;5018817;28;20381;-78
2023/06/24 03:10:23;;;;;;;9.65;6.22;;;14.20;99.90;;;;;;5031812;28;20029;-77
2023/06/24 03:12:49;;;;;;;10.38;6.97;;;14.20;99.90;;;;;;5020388;28;20037;-77
2023/06/24 03:15:15;;;;;;;11.07;6.75;;;14.10;99.90;;;;;;5011313;28;20429;-78
2023/06/24 03:17:40;;;;;;;13.23;7.53;;;14.10;99.90;;;;;;5011805;28;20432;-78
2023/06/24 03:20:08;;;;;;;14.93;7.20;;;14.00;99.90;;;;;;5012069;28;20034;-72
2023/06/24 03:22:33;;;;;;;11.18;7.10;;;14.00;99.90;;;;;;5011643;28;20130;-75
2023/06/24 03:24:59;;;;;;;12.73;7.43;;;13.90;99.90;;;;;;5019833;28;20105;-77
2023/06/24 03:27:25;;;;;;;12.15;6.82;;;13.90;99.90;;;;;;5020040;28;20034;-76
2023/06/24 03:29:50;;;;;;;10.05;6.47;;;13.90;99.90;;;;;;5012476;28;20084;-75
2023/06/24 03:32:16;;;;;;;15.18;7.38;;;13.80;99.90;;;;;;5010719;28;20045;-77
2023/06/24 03:34:41;;;;;;;14.23;7.45;;;13.90;99.90;;;;;;5012165;28;20402;-76
2023/06/24 03:37:07;;;;;;;12.95;7.55;;;13.90;99.90;;;;;;5011912;28;20034;-72
2023/06/24 03:39:33;;;;;;;14.73;7.43;;;13.90;99.90;;;;;;5011674;28;20466;-78
2023/06/24 03:41:58;;;;;;;11.88;7.10;;;13.90;99.90;;;;;;5015474;28;20454;-75
2023/06/24 03:44:24;;;;;;;11.38;6.50;;;14.00;99.90;;;;;;5011409;28;20033;-77
2023/06/24 03:46:49;;;;;;;10.98;7.10;;;14.00;99.90;;;;;;5011630;28;20037;-76
2023/06/24 03:49:15;;;;;;;12.00;7.32;;;14.00;99.90;;;;;;5010528;28;20037;-74
2023/06/24 03:51:41;;;;;;;13.38;7.35;;;13.90;99.90;;;;;;5011451;28;20093;-73
2023/06/24 03:54:07;;;;;;;11.95;7.25;;;13.90;99.90;;;;;;5011986;28;20619;-71
2023/06/24 03:56:32;;;;;;;13.40;7.25;;;14.00;99.90;;;;;;5011288;28;20038;-76
2023/06/24 03:58:58;;;;;;;12.30;6.85;;;14.00;99.90;;;;;;5018769;28;20025;-77
2023/06/24 04:01:23;;;;;;;16.20;7.38;;;14.00;99.90;;;;;;5018373;28;20589;-77
2023/06/24 04:03:49;;;;;;;11.43;7.32;;;14.10;99.90;;;;;;5010922;28;20100;-78
2023/06/24 04:06:15;;;;;;;13.63;7.75;;;14.10;99.90;;;;;;5008300;28;20040;-78
2023/06/24 04:08:43;;;;;;;12.63;7.55;;;14.10;99.90;;;;;;5022115;28;20034;-75
2023/06/24 04:11:09;;;;;;;10.35;6.82;;;14.10;99.90;;;;;;5010071;28;20033;-73
2023/06/24 04:13:35;;;;;;;12.20;7.47;;;14.20;99.90;;;;;;5008215;28;20057;-77
2023/06/24 04:16:01;;;;;;;12.77;7.15;;;14.30;99.90;;;;;;5014212;28;20022;-75
2023/06/24 04:18:27;;;;;;;16.30;7.68;;;14.40;99.90;;;;;;5009160;28;20041;-76
2023/06/24 04:20:53;;;;;;;11.63;7.10;;;14.40;99.90;;;;;;5009105;28;20034;-76
2023/06/24 04:23:19;;;;;;;11.75;7.25;;;14.50;99.90;;;;;;5008328;28;20042;-77
2023/06/24 04:25:45;;;;;;;12.40;7.47;;;14.60;99.90;;;;;;5010348;28;20037;-77
2023/06/24 04:28:10;;;;;;;11.65;7.13;;;14.50;99.90;;;;;;5010317;28;20446;-73
2023/06/24 04:30:38;;;;;;;12.60;7.28;;;14.50;99.90;;;;;;5009545;28;20030;-76
2023/06/24 04:33:04;;;;;;;12.00;7.65;;;14.50;99.90;;;;;;5010802;28;20054;-74
2023/06/24 04:35:30;;;;;;;10.95;7.60;;;14.50;99.90;;;;;;5010345;28;20030;-77
2023/06/24 04:37:56;;;;;;;13.02;7.85;;;14.70;99.90;;;;;;5010158;28;20042;-76
2023/06/24 04:40:21;;;;;;;11.93;7.50;;;14.80;99.90;;;;;;5010287;28;20109;-77
2023/06/24 04:42:47;;;;;;;10.80;7.20;;;14.80;99.90;;;;;;5010282;28;20076;-78
2023/06/24 04:45:13;;;;;;;12.55;7.43;;;14.80;99.90;;;;;;5008595;28;20029;-74
2023/06/24 04:47:38;;;;;;;11.45;6.88;;;14.80;99.90;;;;;;5025769;28;20026;-76
2023/06/24 04:50:04;;;;;;;10.60;6.57;;;14.70;99.90;;;;;;5008780;28;20034;-75
2023/06/24 04:52:30;;;;;;;14.20;7.60;;;14.80;99.90;;;;;;5009993;28;20110;-75
2023/06/24 04:54:56;;;;;;;12.80;7.07;;;15.00;99.90;;;;;;5010206;28;20097;-78
2023/06/24 04:57:27;;;;;;;12.32;7.78;;;15.30;99.90;;;;;;5015482;28;20052;-78
2023/06/24 04:59:53;;;;;;;13.02;6.82;;;15.50;99.90;;;;;;5030961;28;20042;-73
2023/06/24 05:02:18;;;;;;;11.50;7.00;;;15.60;99.90;;;;;;5008258;28;20057;-77
2023/06/24 05:04:44;;;;;;;15.32;7.57;;;15.80;99.90;;;;;;4998043;28;20418;-74
2023/06/24 05:07:10;;;;;;;13.90;7.47;;;15.90;99.90;;;;;;5010147;28;20026;-76
2023/06/24 05:09:37;;;;;;;14.80;7.35;;;15.80;99.90;;;;;;5004250;28;20030;-77
2023/06/24 05:12:04;;;;;;;12.35;7.57;;;15.80;99.90;;;;;;5006015;28;20034;-77
2023/06/24 05:14:30;;;;;;;12.38;7.60;;;16.00;99.90;;;;;;5008604;28;20105;-77
2023/06/24 05:16:55;;;;;;;12.95;7.55;;;16.10;99.90;;;;;;5021790;28;20053;-79
2023/06/24 05:19:21;;;;;;;11.23;7.18;;;16.10;99.90;;;;;;5026589;28;20111;-77
2023/06/24 05:21:47;;;;;;;13.05;7.65;;;16.10;99.90;;;;;;5007798;28;20034;-77
2023/06/24 05:24:12;;;;;;;14.43;8.05;;;16.20;99.90;;;;;;5009930;28;20504;-74
2023/06/24 05:26:38;;;;;;;12.18;7.47;;;16.30;99.90;;;;;;5010056;28;20760;-78
2023/06/24 05:29:03;;;;;;;12.13;7.75;;;16.30;99.90;;;;;;4994898;28;20053;-76
2023/06/24 05:31:29;;;;;;;11.85;7.07;;;16.40;99.90;;;;;;5008064;28;20034;-77
2023/06/24 05:33:55;;;;;;;10.60;7.13;;;16.60;99.90;;;;;;5005430;28;20513;-78
2023/06/24 05:36:20;;;;;;;13.43;7.25;;;16.80;99.90;;;;;;5008980;28;20033;-76
2023/06/24 05:38:48;;;;;;;12.00;7.32;;;17.10;99.90;;;;;;5009837;28;20030;-78
2023/06/24 05:41:13;;;;;;;12.57;7.28;;;17.30;99.90;;;;;;5018635;28;20056;-73
2023/06/24 05:43:39;;;;;;;14.38;7.65;;;17.50;99.90;;;;;;5021681;28;20038;-76
2023/06/24 05:46:05;;;;;;;11.88;7.50;;;17.60;99.90;;;;;;5009923;28;20029;-76
2023/06/24 05:48:30;;;;;;;13.70;8.05;;;17.70;99.90;;;;;;5009121;28;20517;-78
2023/06/24 05:50:56;;;;;;;13.35;7.38;;;17.80;99.90;;;;;;5008399;28;20041;-75
2023/06/24 05:53:21;;;;;;;10.70;6.80;;;17.80;99.90;;;;;;5010744;28;20069;-76
2023/06/24 05:55:48;;;;;;;13.07;7.85;;;17.90;99.90;;;;;;5028606;28;20156;-76
2023/06/24 05:58:13;;;;;;;15.50;8.07;;;18.00;99.90;;;;;;5029425;28;20025;-74
2023/06/24 06:00:39;;;;;;;12.48;7.40;;;18.10;99.90;;;;;;5028468;28;20080;-80
2023/06/24 06:03:05;;;;;;;13.27;7.63;;;18.20;99.90;;;;;;5019634;28;20395;-79
2023/06/24 06:05:30;;;;;;;13.48;7.53;;;18.40;99.90;;;;;;5027743;28;20030;-77
2023/06/24 06:07:56;;;;;;;12.82;7.03;;;18.40;99.90;;;;;;5029359;28;20432;-77
2023/06/24 06:10:21;;;;;;;9.88;6.18;;;18.50;99.90;;;;;;5028468;28;20030;-74
2023/06/24 06:12:47;;;;;;;9.98;6.03;;;18.60;99.90;;;;;;5029084;28;20079;-75
2023/06/24 06:15:13;;;;;;;11.52;6.05;;;18.70;99.90;;;;;;5010787;28;20390;-76
2023/06/24 06:17:39;;;;;;;13.43;6.68;;;18.70;99.90;;;;;;5008641;28;20022;-74
2023/06/24 06:20:05;;;;;;;11.48;6.50;;;18.60;99.90;;;;;;5009308;28;20087;-76
2023/06/24 06:22:32;;;;;;;10.02;6.13;;;18.70;99.90;;;;;;5022636;28;20046;-76
2023/06/24 06:24:57;;;;;;;8.80;5.47;;;18.70;99.90;;;;;;5029028;28;20116;-74
2023/06/24 06:27:23;;;;;;;11.18;5.93;;;18.80;99.90;;;;;;5027950;28;20109;-77
2023/06/24 06:29:49;;;;;;;8.93;5.43;;;18.90;99.90;;;;;;5006566;28;20033;-72
2023/06/24 06:32:14;;;;;;;9.85;5.97;;;19.10;99.90;;;;;;5008277;28;20026;-78
2023/06/24 06:34:40;;;;;;;10.10;6.18;;;19.20;99.90;;;;;;5008262;28;20066;-77
2023/06/24 06:37:06;;;;;;;9.55;5.63;;;19.20;99.90;;;;;;5007763;28;20025;-78
2023/06/24 06:39:31;;;;;;;9.65;5.28;;;19.40;99.90;;;;;;5001679;28;20052;-78
2023/06/24 06:41:57;;;;;;;16.35;5.13;;;19.50;99.90;;;;;;5009704;28;20085;-75
2023/06/24 06:44:22;;;;;;;18.60;5.50;;;19.60;99.90;;;;;;5003412;28;20026;-75
2023/06/24 06:46:48;;;;;;;7.75;4.72;;;19.70;99.90;;;;;;5007826;28;20104;-77
2023/06/24 06:49:13;;;;;;;7.55;5.00;;;19.70;99.90;;;;;;5007706;28;20034;-75
2023/06/24 06:51:39;;;;;;;10.18;4.93;;;19.80;99.90;;;;;;5007651;28;20026;-75
2023/06/24 06:54:05;;;;;;;13.40;5.75;;;19.80;99.90;;;;;;5007838;28;20026;-74
2023/06/24 06:56:30;;;;;;;8.10;5.28;;;19.80;99.90;;;;;;5006424;28;20056;-77
2023/06/24 06:58:56;;;;;;;8.57;4.85;;;19.80;99.90;;;;;;4989542;28;20037;-76
2023/06/24 07:01:21;;;;;;;9.57;5.00;;;20.00;99.90;;;;;;5008157;28;20030;-72
2023/06/24 07:03:49;;;;;;;8.00;4.85;;;20.10;99.90;;;;;;5005600;28;20169;-75
2023/06/24 07:06:17;;;;;;;11.82;4.53;;;20.30;99.90;;;;;;5004128;28;20040;-76
2023/06/24 07:08:42;;;;;;;9.63;4.78;;;20.40;99.90;;;;;;5008339;28;20049;-74
2023/06/24 07:11:08;;;;;;;6.90;4.50;;;20.50;99.90;;;;;;5008780;28;20033;-76
2023/06/24 07:13:34;;;;;;;9.52;5.20;;;20.50;99.90;;;;;;4988234;28;20478;-76
2023/06/24 07:15:59;;;;;;;8.35;5.10;;;20.50;99.90;;;;;;5004166;28;20773;-77
2023/06/24 07:18:30;;;;;;;10.13;5.18;;;20.70;99.90;;;;;;5022453;28;20381;-75
2023/06/24 07:20:55;;;;;;;9.82;4.75;;;20.90;99.90;;;;;;5028352;28;20030;-76
2023/06/24 07:23:21;;;;;;;13.88;4.85;;;21.00;99.90;;;;;;5027915;28;20037;-74
2023/06/24 07:25:47;;;;;;;8.95;4.75;;;21.00;99.90;;;;;;5028035;28;20484;-75
2023/06/24 07:28:12;;;;;;;7.90;4.93;;;21.10;99.90;;;;;;5025582;28;20478;-73
2023/06/24 07:30:38;;;;;;;8.02;4.75;;;21.30;99.90;;;;;;5027450;28;20042;-75
2023/06/24 07:33:05;;;;;;;9.13;4.60;;;21.20;99.90;;;;;;5022200;28;20058;-76
2023/06/24 07:35:32;;;;;;;11.02;5.10;;;21.30;99.90;;;;;;5027641;28;20493;-77
2023/06/24 07:37:58;;;;;;;9.52;4.90;;;21.40;99.90;;;;;;5026840;28;20029;-75
2023/06/24 07:40:24;;;;;;;7.30;4.78;;;21.40;99.90;;;;;;5027520;28;20029;-72
2023/06/24 07:42:49;;;;;;;9.80;5.20;;;21.40;99.90;;;;;;5025736;28;20049;-76
2023/06/24 07:45:15;;;;;;;9.95;5.18;;;21.60;99.90;;;;;;5011968;28;20470;-76
2023/06/24 07:47:41;;;;;;;9.25;4.70;;;21.80;99.90;;;;;;5011668;28;20029;-77
2023/06/24 07:50:08;;;;;;;9.20;5.22;;;21.90;99.90;;;;;;4994236;28;20057;-78
2023/06/24 07:52:34;;;;;;;9.40;4.93;;;22.00;99.90;;;;;;5011282;28;20084;-75
2023/06/24 07:55:00;;;;;;;10.15;5.18;;;22.00;99.90;;;;;;5027366;28;20424;-79
2023/06/24 07:57:27;;;;;;;13.02;4.65;;;22.00;99.90;;;;;;5030874;28;20116;-76
2023/06/24 07:59:54;;;;;;;8.88;4.97;;;22.10;99.90;;;;;;5031731;28;20037;-78
2023/06/24 08:02:20;;;;;;;8.00;4.60;;;22.40;99.90;;;;;;5026807;28;20049;-75
2023/06/24 08:04:46;;;;;;;11.77;5.57;;;22.70;99.90;;;;;;4996298;28;20513;-76
2023/06/24 08:07:12;;;;;;;7.57;5.10;;;22.50;99.90;;;;;;5010458;28;20040;-77
2023/06/24 08:09:38;;;;;;;9.57;5.53;;;22.50;99.90;;;;;;5009418;28;20103;-77
2023/06/24 08:12:04;;;;;;;7.13;4.68;;;22.60;99.90;;;;;;5008826;28;20033;-76
2023/06/24 08:14:30;;;;;;;8.75;5.07;;;22.80;99.90;;;;;;5011333;28;20880;-77
2023/06/24 08:16:56;;;;;;;10.55;5.68;;;23.00;99.90;;;;;;5007426;28;20037;-74
2023/06/24 08:19:21;;;;;;;8.68;5.53;;;23.00;99.90;;;;;;5010190;28;20026;-77
2023/06/24 08:21:47;;;;;;;12.20;6.35;;;22.80;99.90;;;;;;5010318;28;20037;-79
2023/06/24 08:24:12;;;;;;;10.50;5.57;;;22.90;99.90;;;;;;5011448;28;20438;-78
2023/06/24 08:26:38;;;;;;;8.52;5.10;;;22.90;99.90;;;;;;5025914;28;20034;-80
2023/06/24 08:29:04;;;;;;;7.57;5.07;;;23.10;99.10;;;;;;5011944;28;20037;-78
2023/06/24 08:31:29;;;;;;;7.32;4.97;;;23.30;99.40;;;;;;5015232;28;20076;-79
2023/06/24 08:33:59;;;;;;;7.45;5.00;;;23.60;99.70;;;;;;5007028;28;20050;-77
2023/06/24 08:36:29;;;;;;;11.60;5.23;;;23.90;99.90;;;;;;5010023;28;20030;-73
2023/06/24 08:38:54;;;;;;;151.18;9.73;;;24.00;99.90;;;;;;5010204;28;20040;-79
2023/06/24 08:41:20;;;;;;;143.52;10.30;;;24.00;98.80;;;;;;4993811;28;20034;-79
2023/06/24 08:43:46;;;;;;;14.18;4.93;;;23.90;98.40;;;;;;5010870;28;20034;-80
2023/06/24 08:46:16;;;;;;;9.18;4.93;;;23.50;97.90;;;;;;5010686;28;20026;-77
2023/06/24 08:48:44;;;;;;;7.40;4.80;;;23.10;98.00;;;;;;5009562;28;20037;-78
2023/06/24 08:51:13;;;;;;;7.63;4.43;;;23.30;98.80;;;;;;5010827;28;20061;-80
2023/06/24 08:53:40;;;;;;;7.45;5.13;;;23.60;98.30;;;;;;5010484;28;20034;-77
2023/06/24 08:56:06;;;;;;;8.52;4.82;;;23.80;98.70;;;;;;5022758;28;20030;-80
2023/06/24 08:58:33;;;;;;;6.95;4.75;;;23.40;96.10;;;;;;5016902;28;20091;-79
2023/06/24 09:00:59;;;;;;;9.95;4.88;;;22.90;96.80;;;;;;5011476;28;20066;-81
2023/06/24 09:03:24;;;;;;;7.50;4.95;;;22.60;96.70;;;;;;5009639;28;20041;-77
2023/06/24 09:05:50;;;;;;;8.93;5.40;;;22.50;97.80;;;;;;5010914;28;20026;-80
2023/06/24 09:08:16;;;;;;;9.70;5.50;;;22.40;98.10;;;;;;5010332;28;20034;-78
2023/06/24 09:10:41;;;;;;;10.70;4.88;;;22.50;98.30;;;;;;5007964;28;20022;-78
2023/06/24 09:13:07;;;;;;;9.25;5.38;;;22.90;98.30;;;;;;5007930;28;20038;-77
2023/06/24 09:15:37;;;;;;;8.65;4.78;;;23.50;96.40;;;;;;5010523;28;20805;-78
2023/06/24 09:18:04;;;;;;;6.70;4.95;;;24.00;96.20;;;;;;5011119;28;20390;-80
2023/06/24 09:20:31;;;;;;;8.90;4.63;;;24.20;95.90;;;;;;5019360;28;20037;-73
2023/06/24 09:23:04;;;;;;;8.13;4.70;;;24.60;94.80;;;;;;5011795;28;20054;-79
2023/06/24 09:25:30;;;;;;;9.20;5.07;;;25.00;93.80;;;;;;4990884;28;20026;-73
2023/06/24 09:28:02;;;;;;;6.63;4.38;;;24.90;93.90;;;;;;4991547;28;20080;-78
2023/06/24 09:30:28;;;;;;;8.00;4.68;;;24.50;94.10;;;;;;5004113;28;20041;-76
2023/06/24 09:32:55;;;;;;;8.70;4.72;;;24.20;93.90;;;;;;5015823;28;20062;-77
2023/06/24 09:35:25;;;;;;;8.65;4.35;;;23.90;94.10;;;;;;5010071;28;20095;-76
2023/06/24 09:37:52;;;;;;;5.72;3.97;;;23.90;93.60;;;;;;5002278;28;20525;-77
2023/06/24 09:40:21;;;;;;;5.82;4.22;;;23.80;91.70;;;;;;5009145;28;20045;-77
2023/06/24 09:42:54;;;;;;;6.85;4.20;;;23.70;92.50;;;;;;5005988;28;20045;-79
2023/06/24 09:45:27;;;;;;;7.60;5.30;;;23.60;93.30;;;;;;5006845;28;20065;-76
2023/06/24 09:47:54;;;;;;;7.72;4.30;;;23.90;93.80;;;;;;5006694;28;20038;-79
2023/06/24 09:50:20;;;;;;;8.25;3.78;;;24.50;92.90;;;;;;5008744;28;20071;-75
2023/06/24 09:52:48;;;;;;;7.78;4.20;;;25.10;91.20;;;;;;5003902;28;20394;-77
2023/06/24 09:55:16;;;;;;;6.95;4.40;;;25.50;87.00;;;;;;5009204;28;20026;-76
2023/06/24 09:57:45;;;;;;;6.63;4.38;;;25.80;85.80;;;;;;5008780;28;20113;-76
2023/06/24 10:00:15;;;;;;;5.72;3.80;;;26.30;88.00;;;;;;5008097;28;20422;-78
2023/06/24 10:02:41;;;;;;;5.50;3.90;;;26.80;85.70;;;;;;5003997;28;20038;-81
2023/06/24 10:05:07;;;;;;;6.07;3.70;;;27.00;84.40;;;;;;5007404;28;20061;-77
2023/06/24 10:07:36;;;;;;;5.50;3.80;;;27.10;81.50;;;;;;5007653;28;20038;-77
2023/06/24 10:10:03;;;;;;;4.80;3.70;;;27.30;79.10;;;;;;5009551;28;20025;-78
2023/06/24 10:12:29;;;;;;;5.80;3.88;;;27.50;78.80;;;;;;5009252;28;20037;-73
2023/06/24 10:14:55;;;;;;;9.60;4.30;;;27.40;76.80;;;;;;5006418;28;20040;-79
2023/06/24 10:17:20;;;;;;;6.60;4.03;;;27.30;79.70;;;;;;5008309;28;20033;-79
2023/06/24 10:19:46;;;;;;;13.25;4.57;;;27.40;77.40;;;;;;5006182;28;20037;-77
2023/06/24 10:22:12;;;;;;;6.18;4.15;;;27.40;77.10;;;;;;5007769;28;20462;-79
2023/06/24 10:24:41;;;;;;;6.65;4.13;;;27.30;75.60;;;;;;5007237;28;20099;-76
2023/06/24 10:27:15;;;;;;;7.82;4.13;;;27.00;74.70;;;;;;5009315;28;20038;-81
2023/06/24 10:29:45;;;;;;;9.23;4.40;;;26.20;77.10;;;;;;5006508;28;20025;-78
2023/06/24 10:32:10;;;;;;;;;;;25.70;79.40;;;;;;5007232;28;20025;-72
2023/06/24 10:34:41;;;;;;;7.53;4.30;;;25.50;80.50;;;;;;5006441;28;20330;-78
2023/06/24 10:37:25;;;;;;;8.15;4.50;;;25.80;80.40;;;;;;5008908;28;20662;-78
2023/06/24 10:39:58;;;;;;;9.02;3.95;;;26.50;82.40;;;;;;5007318;28;20069;-78
2023/06/24 10:42:29;;;;;;;5.68;4.30;;;26.70;79.30;;;;;;5008667;28;20489;-76
2023/06/24 10:44:59;;;;;;;7.80;4.13;;;27.10;77.50;;;;;;5009112;28;20026;-77
2023/06/24 10:47:26;;;;;;;9.77;4.43;;;27.20;74.90;;;;;;5009079;28;20030;-77
2023/06/24 10:49:51;;;;;;;5.90;4.05;;;27.00;73.10;;;;;;5007176;28;20106;-76
2023/06/24 10:52:22;;;;;;;5.82;4.07;;;27.10;74.30;;;;;;5007049;28;20122;-77
2023/06/24 10:54:48;;;;;;;7.15;4.25;;;27.40;74.50;;;;;;5004118;28;20045;-78
2023/06/24 10:57:14;;;;;;;6.32;4.22;;;27.60;74.50;;;;;;5008213;28;20038;-75
2023/06/24 10:59:46;;;;;;;6.78;4.13;;;27.60;75.80;;;;;;5007306;28;20033;-74
2023/06/24 11:02:17;;;;;;;5.57;4.07;;;28.00;72.00;;;;;;5016707;28;20482;-75
2023/06/24 11:04:43;;;;;;;;;;;28.20;69.00;;;;;;5015813;28;20029;-78
2023/06/24 11:07:09;;;;;;;5.80;3.65;;;28.20;68.50;;;;;;5028312;28;20350;-76
2023/06/24 11:09:35;;;;;;;6.93;4.00;;;28.20;68.40;;;;;;5012223;28;20088;-76
2023/06/24 11:12:03;;;;;;;5.15;4.15;;;27.50;66.80;;;;;;5007434;28;20034;-78
2023/06/24 11:14:28;;;;;;;5.53;3.75;;;27.20;67.00;;;;;;5006223;28;20040;-79
2023/06/24 11:16:54;;;;;;;8.57;4.38;;;27.60;68.30;;;;;;5008809;28;20106;-77
2023/06/24 11:19:20;;;;;;;8.27;4.13;;;27.90;68.00;;;;;;5009964;28;20369;-75
2023/06/24 11:21:46;;;;;;;6.97;3.85;;;28.30;69.40;;;;;;5024873;28;20037;-78
2023/06/24 11:24:11;;;;;;;5.80;3.88;;;28.50;69.00;;;;;;5012279;28;20096;-76
2023/06/24 11:26:38;;;;;;;6.00;4.25;;;28.40;69.00;;;;;;5011608;28;20128;-79
2023/06/24 11:29:13;;;;;;;5.97;4.32;;;28.50;67.80;;;;;;4997352;28;20561;-76
2023/06/24 11:31:38;;;;;;;5.50;4.00;;;29.00;70.20;;;;;;5011626;28;20112;-77
2023/06/24 11:34:04;;;;;;;6.85;3.92;;;29.10;63.90;;;;;;5010219;28;20058;-79
2023/06/24 11:36:30;;;;;;;7.47;3.97;;;28.50;65.10;;;;;;5012241;28;20034;-78
2023/06/24 11:38:56;;;;;;;6.22;3.88;;;27.30;68.40;;;;;;5009299;28;20033;-77
2023/06/24 11:41:23;;;;;;;5.80;4.10;;;26.50;69.80;;;;;;5011284;28;20030;-77
2023/06/24 11:43:48;;;;;;;5.53;4.07;;;26.60;73.10;;;;;;5006233;28;20049;-79
2023/06/24 11:46:27;;;;;;;7.25;4.18;;;26.90;71.50;;;;;;5007601;28;20036;-76
2023/06/24 11:49:03;;;;;;;5.80;4.07;;;27.10;71.00;;;;;;5006276;28;20101;-78
2023/06/24 11:51:28;;;;;;;6.55;4.00;;;27.30;70.90;;;;;;5010157;28;20036;-76
2023/06/24 11:53:59;;;;;;;7.63;4.50;;;27.60;65.90;;;;;;4993318;28;20710;-79
2023/06/24 11:56:42;;;;;;;5.55;3.85;;;28.00;67.20;;;;;;5010008;28;20490;-77
2023/06/24 11:59:19;;;;;;;4.88;3.85;;;28.30;62.20;;;;;;5010121;28;20038;-77
2023/06/24 12:01:52;;;;;;;5.47;3.90;;;28.20;61.60;;;;;;5008279;28;20545;-77
2023/06/24 12:04:17;;;;;;;6.53;3.88;;;28.40;61.90;;;;;;5008187;28;20482;-76
2023/06/24 12:06:44;;;;;;;6.47;4.07;;;28.30;59.10;;;;;;5008612;28;20164;-78
2023/06/24 12:09:10;;;;;;;7.05;3.97;;;28.00;59.10;;;;;;5000853;28;20026;-75
2023/06/24 12:11:36;;;;;;;7.78;4.28;;;28.00;59.50;;;;;;5007692;28;20048;-76
2023/06/24 12:14:02;;;;;;;5.18;3.80;;;27.90;59.50;;;;;;4983507;28;20096;-76
2023/06/24 12:16:29;;;;;;;5.72;3.90;;;28.20;60.80;;;;;;4993305;28;20752;-75
2023/06/24 12:18:54;;;;;;;5.40;3.72;;;28.20;60.80;;;;;;5013130;28;20060;-79
2023/06/24 12:21:20;;;;;;;6.20;3.88;;;28.50;60.30;;;;;;5003244;28;20060;-77
2023/06/24 12:23:46;;;;;;;4.85;3.42;;;28.60;60.00;;;;;;5009219;28;20045;-77
2023/06/24 12:26:12;;;;;;;8.90;3.75;;;29.00;59.30;;;;;;5011535;28;20077;-76
2023/06/24 12:28:38;;;;;;;5.57;3.72;;;29.20;58.40;;;;;;5008754;28;20596;-73
2023/06/24 12:31:04;;;;;;;6.85;3.72;;;29.40;57.90;;;;;;5010228;28;20124;-76
2023/06/24 12:33:30;;;;;;;4.57;3.67;;;28.80;57.20;;;;;;5003669;28;20105;-78
2023/06/24 12:35:56;;;;;;;4.93;3.53;;;28.50;57.10;;;;;;4999531;28;20037;-76
2023/06/24 12:38:22;;;;;;;5.10;3.40;;;28.50;57.80;;;;;;5001773;28;20034;-76
2023/06/24 12:40:48;;;;;;;5.95;4.15;;;28.30;59.30;;;;;;5010678;28;20034;-78
2023/06/24 12:43:14;;;;;;;6.55;4.03;;;28.40;58.50;;;;;;5010124;28;20713;-79